sensor_id;sensor_type;location;lat;lon;timestamp;pressure;altitude;pressure_sealevel;temperature;humidity
45403;BME280;47427;51.976;5.326;2022-10-26T00:00:08;101347.94;;;11.16;98.49
45403;BME280;47427;51.976;5.326;2022-10-26T00:03:36;101352.75;;;11.30;97.70
45403;BME280;47427;51.976;5.326;2022-10-26T00:06:59;101337.16;;;11.36;97.52
45403;BME280;47427;51.976;5.326;2022-10-26T00:10:22;101339.00;;;11.38;97.39
45403;BME280;47427;51.976;5.326;2022-10-26T00:13:47;101336.50;;;11.43;97.37
45403;BME280;47427;51.976;5.326;2022-10-26T00:17:10;101329.47;;;11.42;96.89
45403;BME280;47427;51.976;5.326;2022-10-26T00:20:33;101327.78;;;11.44;96.73
45403;BME280;47427;51.976;5.326;2022-10-26T00:23:58;101325.72;;;11.34;96.95
45403;BME280;47427;51.976;5.326;2022-10-26T00:27:21;101324.03;;;11.36;97.10
45403;BME280;47427;51.976;5.326;2022-10-26T00:30:44;101300.16;;;11.28;97.01
45403;BME280;47427;51.976;5.326;2022-10-26T00:34:10;101316.22;;;11.37;97.04
45403;BME280;47427;51.976;5.326;2022-10-26T00:37:34;101297.59;;;11.30;97.12
45403;BME280;47427;51.976;5.326;2022-10-26T00:40:57;101302.94;;;11.34;97.49
45403;BME280;47427;51.976;5.326;2022-10-26T00:48:31;101303.94;;;11.38;97.44
45403;BME280;47427;51.976;5.326;2022-10-26T00:51:55;101289.00;;;11.35;97.23
45403;BME280;47427;51.976;5.326;2022-10-26T00:55:22;101285.56;;;11.38;97.43
45403;BME280;47427;51.976;5.326;2022-10-26T00:58:46;101290.25;;;11.48;97.42
45403;BME280;47427;51.976;5.326;2022-10-26T01:02:09;101279.59;;;11.43;97.63
45403;BME280;47427;51.976;5.326;2022-10-26T01:05:34;101293.59;;;11.42;97.82
45403;BME280;47427;51.976;5.326;2022-10-26T01:08:58;101285.72;;;11.44;97.70
45403;BME280;47427;51.976;5.326;2022-10-26T01:12:21;101283.97;;;11.43;97.73
45403;BME280;47427;51.976;5.326;2022-10-26T01:15:48;101286.44;;;11.38;98.12
45403;BME280;47427;51.976;5.326;2022-10-26T01:19:31;101285.34;;;11.32;98.53
45403;BME280;47427;51.976;5.326;2022-10-26T01:23:32;101273.88;;;11.28;98.32
45403;BME280;47427;51.976;5.326;2022-10-26T01:30:45;101254.31;;;11.17;99.78
45403;BME280;47427;51.976;5.326;2022-10-26T01:34:23;101267.03;;;11.33;99.22
45403;BME280;47427;51.976;5.326;2022-10-26T01:41:59;101244.81;;;11.22;100.00
45403;BME280;47427;51.976;5.326;2022-10-26T01:45:23;101252.78;;;11.25;100.00
45403;BME280;47427;51.976;5.326;2022-10-26T01:48:50;101256.34;;;11.27;100.00
45403;BME280;47427;51.976;5.326;2022-10-26T01:52:17;101258.34;;;11.36;99.80
45403;BME280;47427;51.976;5.326;2022-10-26T01:55:52;101250.09;;;11.23;100.00
45403;BME280;47427;51.976;5.326;2022-10-26T01:59:21;101258.03;;;11.25;100.00
45403;BME280;47427;51.976;5.326;2022-10-26T02:03:20;101252.50;;;11.16;100.00
45403;BME280;47427;51.976;5.326;2022-10-26T02:11:32;101228.91;;;11.17;100.00
45403;BME280;47427;51.976;5.326;2022-10-26T02:19:48;101253.75;;;11.57;99.72
45403;BME280;47427;51.976;5.326;2022-10-26T02:23:14;101233.75;;;11.64;99.70
45403;BME280;47427;51.976;5.326;2022-10-26T02:26:39;101219.06;;;11.72;98.88
45403;BME280;47427;51.976;5.326;2022-10-26T02:30:05;101220.19;;;11.80;98.79
45403;BME280;47427;51.976;5.326;2022-10-26T02:33:35;101217.56;;;11.80;98.78
45403;BME280;47427;51.976;5.326;2022-10-26T02:37:00;101203.22;;;11.69;98.59
45403;BME280;47427;51.976;5.326;2022-10-26T02:40:26;101215.13;;;11.55;99.20
45403;BME280;47427;51.976;5.326;2022-10-26T02:43:59;101211.00;;;11.34;100.00
45403;BME280;47427;51.976;5.326;2022-10-26T02:47:26;101223.13;;;11.29;100.00
45403;BME280;47427;51.976;5.326;2022-10-26T02:51:15;101207.47;;;11.03;100.00
45403;BME280;47427;51.976;5.326;2022-10-26T02:55:00;101204.41;;;10.88;100.00
45403;BME280;47427;51.976;5.326;2022-10-26T02:58:29;101211.38;;;10.88;100.00
45403;BME280;47427;51.976;5.326;2022-10-26T03:01:55;101208.47;;;10.78;100.00
45403;BME280;47427;51.976;5.326;2022-10-26T03:05:25;101205.25;;;10.87;100.00
45403;BME280;47427;51.976;5.326;2022-10-26T03:08:49;101207.47;;;11.02;100.00
45403;BME280;47427;51.976;5.326;2022-10-26T03:12:11;101180.44;;;11.06;100.00
45403;BME280;47427;51.976;5.326;2022-10-26T03:15:34;101197.25;;;11.13;100.00
45403;BME280;47427;51.976;5.326;2022-10-26T03:18:57;101188.41;;;11.09;100.00
45403;BME280;47427;51.976;5.326;2022-10-26T03:22:20;101198.44;;;11.24;100.00
45403;BME280;47427;51.976;5.326;2022-10-26T03:25:42;101187.03;;;11.22;100.00
45403;BME280;47427;51.976;5.326;2022-10-26T03:29:05;101195.75;;;11.21;100.00
45403;BME280;47427;51.976;5.326;2022-10-26T03:32:29;101192.97;;;11.16;100.00
45403;BME280;47427;51.976;5.326;2022-10-26T03:35:55;101191.88;;;11.08;100.00
45403;BME280;47427;51.976;5.326;2022-10-26T03:39:39;101188.22;;;11.03;100.00
45403;BME280;47427;51.976;5.326;2022-10-26T03:43:02;101200.53;;;11.04;100.00
45403;BME280;47427;51.976;5.326;2022-10-26T03:46:25;101188.06;;;10.97;100.00
45403;BME280;47427;51.976;5.326;2022-10-26T03:49:48;101192.41;;;10.96;100.00
45403;BME280;47427;51.976;5.326;2022-10-26T03:53:10;101181.78;;;10.93;100.00
45403;BME280;47427;51.976;5.326;2022-10-26T03:56:33;101187.34;;;11.02;100.00
45403;BME280;47427;51.976;5.326;2022-10-26T03:59:56;101191.03;;;11.09;100.00
45403;BME280;47427;51.976;5.326;2022-10-26T04:03:18;101182.53;;;11.18;100.00
45403;BME280;47427;51.976;5.326;2022-10-26T04:06:41;101192.31;;;11.23;100.00
45403;BME280;47427;51.976;5.326;2022-10-26T04:10:05;101178.66;;;11.35;100.00
45403;BME280;47427;51.976;5.326;2022-10-26T04:13:28;101184.84;;;11.37;100.00
45403;BME280;47427;51.976;5.326;2022-10-26T04:16:50;101177.06;;;11.42;100.00
45403;BME280;47427;51.976;5.326;2022-10-26T04:20:13;101163.16;;;11.44;100.00
45403;BME280;47427;51.976;5.326;2022-10-26T04:23:36;101167.63;;;11.48;100.00
45403;BME280;47427;51.976;5.326;2022-10-26T04:26:59;101162.59;;;11.56;100.00
45403;BME280;47427;51.976;5.326;2022-10-26T04:30:22;101164.47;;;11.60;100.00
45403;BME280;47427;51.976;5.326;2022-10-26T04:33:45;101170.72;;;11.65;100.00
45403;BME280;47427;51.976;5.326;2022-10-26T04:37:08;101147.81;;;11.61;100.00
45403;BME280;47427;51.976;5.326;2022-10-26T04:40:32;101154.75;;;11.58;100.00
45403;BME280;47427;51.976;5.326;2022-10-26T04:43:55;101151.84;;;11.47;100.00
45403;BME280;47427;51.976;5.326;2022-10-26T04:47:18;101136.38;;;11.59;100.00
45403;BME280;47427;51.976;5.326;2022-10-26T04:50:40;101159.41;;;11.68;100.00
45403;BME280;47427;51.976;5.326;2022-10-26T04:54:03;101154.97;;;11.67;100.00
45403;BME280;47427;51.976;5.326;2022-10-26T04:57:26;101143.50;;;11.63;100.00
45403;BME280;47427;51.976;5.326;2022-10-26T05:00:49;101168.44;;;11.78;100.00
45403;BME280;47427;51.976;5.326;2022-10-26T05:04:11;101150.47;;;11.61;100.00
45403;BME280;47427;51.976;5.326;2022-10-26T05:07:34;101153.00;;;11.58;100.00
45403;BME280;47427;51.976;5.326;2022-10-26T05:10:57;101170.72;;;11.65;100.00
45403;BME280;47427;51.976;5.326;2022-10-26T05:14:21;101168.91;;;11.63;100.00
45403;BME280;47427;51.976;5.326;2022-10-26T05:17:44;101160.75;;;11.54;100.00
45403;BME280;47427;51.976;5.326;2022-10-26T05:21:07;101168.78;;;11.58;100.00
45403;BME280;47427;51.976;5.326;2022-10-26T05:24:29;101177.34;;;11.51;100.00
45403;BME280;47427;51.976;5.326;2022-10-26T05:28:12;101164.13;;;11.48;100.00
45403;BME280;47427;51.976;5.326;2022-10-26T05:31:36;101182.25;;;11.70;100.00
45403;BME280;47427;51.976;5.326;2022-10-26T05:35:17;101182.72;;;11.87;100.00
45403;BME280;47427;51.976;5.326;2022-10-26T05:38:40;101174.69;;;11.83;100.00
45403;BME280;47427;51.976;5.326;2022-10-26T05:42:03;101187.34;;;11.96;100.00
45403;BME280;47427;51.976;5.326;2022-10-26T05:45:25;101186.72;;;12.06;100.00
45403;BME280;47427;51.976;5.326;2022-10-26T05:48:48;101177.78;;;12.00;100.00
45403;BME280;47427;51.976;5.326;2022-10-26T05:52:11;101180.34;;;11.97;100.00
45403;BME280;47427;51.976;5.326;2022-10-26T05:55:34;101182.13;;;11.98;100.00
45403;BME280;47427;51.976;5.326;2022-10-26T05:58:57;101185.78;;;12.04;100.00
45403;BME280;47427;51.976;5.326;2022-10-26T06:06:10;101196.16;;;11.98;100.00
45403;BME280;47427;51.976;5.326;2022-10-26T06:09:35;101199.56;;;11.94;100.00
45403;BME280;47427;51.976;5.326;2022-10-26T06:12:58;101190.53;;;11.86;100.00
45403;BME280;47427;51.976;5.326;2022-10-26T06:16:45;101196.78;;;11.89;100.00
45403;BME280;47427;51.976;5.326;2022-10-26T06:32:05;101198.31;;;12.14;100.00
45403;BME280;47427;51.976;5.326;2022-10-26T06:39:11;101198.50;;;12.21;100.00
45403;BME280;47427;51.976;5.326;2022-10-26T06:42:35;101201.16;;;12.22;100.00
45403;BME280;47427;51.976;5.326;2022-10-26T06:50:12;101177.63;;;12.28;99.55
45403;BME280;47427;51.976;5.326;2022-10-26T06:54:23;101196.72;;;12.56;98.53
45403;BME280;47427;51.976;5.326;2022-10-26T06:58:19;101193.41;;;12.65;98.38
45403;BME280;47427;51.976;5.326;2022-10-26T07:01:44;101201.75;;;12.85;97.61
45403;BME280;47427;51.976;5.326;2022-10-26T07:05:10;101191.56;;;13.00;96.89
45403;BME280;47427;51.976;5.326;2022-10-26T07:08:34;101195.19;;;13.44;95.09
45403;BME280;47427;51.976;5.326;2022-10-26T07:11:57;101177.59;;;13.45;93.81
45403;BME280;47427;51.976;5.326;2022-10-26T07:15:19;101197.00;;;13.49;94.05
45403;BME280;47427;51.976;5.326;2022-10-26T07:18:43;101211.72;;;13.39;94.21
45403;BME280;47427;51.976;5.326;2022-10-26T07:22:06;101216.94;;;13.36;94.28
45403;BME280;47427;51.976;5.326;2022-10-26T07:25:29;101220.22;;;13.26;94.70
45403;BME280;47427;51.976;5.326;2022-10-26T07:28:52;101219.81;;;13.07;94.89
45403;BME280;47427;51.976;5.326;2022-10-26T07:32:15;101229.56;;;13.11;95.22
45403;BME280;47427;51.976;5.326;2022-10-26T07:35:39;101214.06;;;12.86;95.63
45403;BME280;47427;51.976;5.326;2022-10-26T07:39:03;101216.03;;;13.79;93.58
45403;BME280;47427;51.976;5.326;2022-10-26T07:42:26;101209.72;;;16.15;85.25
45403;BME280;47427;51.976;5.326;2022-10-26T07:45:50;101236.47;;;18.15;77.77
45403;BME280;47427;51.976;5.326;2022-10-26T07:49:13;101228.47;;;18.88;72.07
45403;BME280;47427;51.976;5.326;2022-10-26T07:52:37;101218.66;;;19.17;69.80
45403;BME280;47427;51.976;5.326;2022-10-26T07:56:02;101232.75;;;19.44;68.04
45403;BME280;47427;51.976;5.326;2022-10-26T07:59:25;101251.44;;;19.30;67.18
45403;BME280;47427;51.976;5.326;2022-10-26T08:02:48;101241.84;;;20.54;63.02
45403;BME280;47427;51.976;5.326;2022-10-26T08:06:13;101222.19;;;21.51;59.20
45403;BME280;47427;51.976;5.326;2022-10-26T08:09:54;101246.81;;;22.33;56.93
45403;BME280;47427;51.976;5.326;2022-10-26T08:13:17;101252.41;;;23.22;55.21
45403;BME280;47427;51.976;5.326;2022-10-26T08:16:40;101255.00;;;23.28;53.19
45403;BME280;47427;51.976;5.326;2022-10-26T08:20:05;101243.09;;;23.43;52.28
45403;BME280;47427;51.976;5.326;2022-10-26T08:23:27;101256.81;;;21.57;54.61
45403;BME280;47427;51.976;5.326;2022-10-26T08:26:50;101268.34;;;19.09;63.94
45403;BME280;47427;51.976;5.326;2022-10-26T08:30:16;101271.00;;;19.09;65.71
45403;BME280;47427;51.976;5.326;2022-10-26T08:33:39;101263.03;;;18.34;67.38
45403;BME280;47427;51.976;5.326;2022-10-26T08:37:02;101273.56;;;17.86;69.82
45403;BME280;47427;51.976;5.326;2022-10-26T08:40:31;101285.81;;;17.58;71.05
45403;BME280;47427;51.976;5.326;2022-10-26T08:43:58;101275.81;;;17.05;73.71
45403;BME280;47427;51.976;5.326;2022-10-26T08:47:31;101297.78;;;16.87;75.17
45403;BME280;47427;51.976;5.326;2022-10-26T08:51:05;101277.13;;;16.49;77.23
45403;BME280;47427;51.976;5.326;2022-10-26T08:54:47;101285.19;;;16.66;77.45
45403;BME280;47427;51.976;5.326;2022-10-26T08:58:19;101282.03;;;17.10;75.84
45403;BME280;47427;51.976;5.326;2022-10-26T09:01:44;101263.59;;;17.33;75.71
45403;BME280;47427;51.976;5.326;2022-10-26T09:05:21;101274.38;;;17.76;74.79
45403;BME280;47427;51.976;5.326;2022-10-26T09:09:27;101265.63;;;18.05;73.33
45403;BME280;47427;51.976;5.326;2022-10-26T09:24:32;101269.88;;;22.94;59.81
45403;BME280;47427;51.976;5.326;2022-10-26T09:27:59;101276.59;;;25.13;53.06
45403;BME280;47427;51.976;5.326;2022-10-26T09:31:22;101296.72;;;27.03;47.00
45403;BME280;47427;51.976;5.326;2022-10-26T09:34:53;101292.34;;;28.21;44.18
45403;BME280;47427;51.976;5.326;2022-10-26T09:39:00;101311.00;;;29.14;42.82
45403;BME280;47427;51.976;5.326;2022-10-26T09:46:02;101314.50;;;27.84;43.70
45403;BME280;47427;51.976;5.326;2022-10-26T09:49:49;101322.91;;;25.87;48.40
45403;BME280;47427;51.976;5.326;2022-10-26T09:53:14;101328.88;;;25.65;48.09
45403;BME280;47427;51.976;5.326;2022-10-26T09:56:37;101316.22;;;26.85;46.25
45403;BME280;47427;51.976;5.326;2022-10-26T10:00:00;101316.31;;;27.83;44.90
45403;BME280;47427;51.976;5.326;2022-10-26T10:03:31;101329.34;;;27.96;42.22
45403;BME280;47427;51.976;5.326;2022-10-26T10:07:16;101332.44;;;28.54;42.20
45403;BME280;47427;51.976;5.326;2022-10-26T10:10:59;101336.53;;;29.48;41.18
45403;BME280;47427;51.976;5.326;2022-10-26T10:14:28;101336.94;;;30.73;39.44
45403;BME280;47427;51.976;5.326;2022-10-26T10:17:53;101347.25;;;30.83;36.99
45403;BME280;47427;51.976;5.326;2022-10-26T10:21:19;101349.63;;;30.72;37.02
45403;BME280;47427;51.976;5.326;2022-10-26T10:25:01;101344.53;;;32.35;35.83
45403;BME280;47427;51.976;5.326;2022-10-26T10:28:26;101365.03;;;33.05;33.72
45403;BME280;47427;51.976;5.326;2022-10-26T10:31:56;101361.47;;;31.91;34.09
45403;BME280;47427;51.976;5.326;2022-10-26T10:35:29;101363.94;;;30.93;36.26
45403;BME280;47427;51.976;5.326;2022-10-26T10:38:52;101373.91;;;29.79;37.46
45403;BME280;47427;51.976;5.326;2022-10-26T10:42:24;101380.38;;;28.47;40.70
45403;BME280;47427;51.976;5.326;2022-10-26T10:45:54;101388.47;;;26.98;43.80
45403;BME280;47427;51.976;5.326;2022-10-26T10:49:23;101399.34;;;25.77;47.09
45403;BME280;47427;51.976;5.326;2022-10-26T10:52:49;101401.69;;;25.22;48.59
45403;BME280;47427;51.976;5.326;2022-10-26T10:56:27;101412.03;;;25.01;50.47
45403;BME280;47427;51.976;5.326;2022-10-26T11:00:04;101414.28;;;24.84;50.83
45403;BME280;47427;51.976;5.326;2022-10-26T11:04:01;101416.31;;;23.39;53.50
45403;BME280;47427;51.976;5.326;2022-10-26T11:07:29;101433.19;;;22.25;58.71
45403;BME280;47427;51.976;5.326;2022-10-26T11:11:00;101437.44;;;21.64;59.99
45403;BME280;47427;51.976;5.326;2022-10-26T11:14:34;101431.66;;;21.10;62.62
45403;BME280;47427;51.976;5.326;2022-10-26T11:18:25;101431.72;;;21.00;63.38
45403;BME280;47427;51.976;5.326;2022-10-26T11:21:53;101427.56;;;20.58;65.19
45403;BME280;47427;51.976;5.326;2022-10-26T11:25:36;101455.28;;;20.12;66.73
45403;BME280;47427;51.976;5.326;2022-10-26T11:29:11;101423.41;;;19.82;68.11
45403;BME280;47427;51.976;5.326;2022-10-26T11:33:03;101440.25;;;19.91;67.73
45403;BME280;47427;51.976;5.326;2022-10-26T11:36:29;101457.78;;;20.52;67.34
45403;BME280;47427;51.976;5.326;2022-10-26T11:40:15;101451.31;;;23.28;61.47
45403;BME280;47427;51.976;5.326;2022-10-26T11:43:49;101443.22;;;26.71;53.75
45403;BME280;47427;51.976;5.326;2022-10-26T11:47:31;101438.81;;;29.16;43.86
45403;BME280;47427;51.976;5.326;2022-10-26T11:50:58;101442.59;;;30.73;40.38
45403;BME280;47427;51.976;5.326;2022-10-26T11:54:33;101453.66;;;32.10;37.78
45403;BME280;47427;51.976;5.326;2022-10-26T11:57:57;101460.69;;;33.11;35.07
45403;BME280;47427;51.976;5.326;2022-10-26T12:01:19;101464.91;;;33.47;34.14
45403;BME280;47427;51.976;5.326;2022-10-26T12:04:43;101461.06;;;33.96;33.11
45403;BME280;47427;51.976;5.326;2022-10-26T12:08:39;101467.06;;;35.41;30.52
45403;BME280;47427;51.976;5.326;2022-10-26T12:16:21;101476.81;;;34.05;32.86
45403;BME280;47427;51.976;5.326;2022-10-26T12:27:55;101472.56;;;25.88;46.42
45403;BME280;47427;51.976;5.326;2022-10-26T12:35:00;101495.13;;;28.59;42.29
45403;BME280;47427;51.976;5.326;2022-10-26T12:45:32;101472.72;;;33.53;33.74
45403;BME280;47427;51.976;5.326;2022-10-26T12:48:53;101496.28;;;32.91;34.11
45403;BME280;47427;51.976;5.326;2022-10-26T12:52:31;101480.69;;;33.10;33.54
45403;BME280;47427;51.976;5.326;2022-10-26T12:56:08;101480.75;;;31.94;35.14
45403;BME280;47427;51.976;5.326;2022-10-26T12:59:52;101480.41;;;33.91;32.89
45403;BME280;47427;51.976;5.326;2022-10-26T13:07:24;101479.34;;;34.80;30.19
45403;BME280;47427;51.976;5.326;2022-10-26T13:11:04;101480.16;;;34.24;32.31
45403;BME280;47427;51.976;5.326;2022-10-26T13:14:37;101479.06;;;35.91;30.73
45403;BME280;47427;51.976;5.326;2022-10-26T13:18:17;101472.75;;;34.41;30.97
45403;BME280;47427;51.976;5.326;2022-10-26T13:21:45;101490.88;;;34.98;31.44
45403;BME280;47427;51.976;5.326;2022-10-26T13:25:28;101477.16;;;33.84;31.10
45403;BME280;47427;51.976;5.326;2022-10-26T13:28:59;101503.56;;;33.22;33.44
45403;BME280;47427;51.976;5.326;2022-10-26T13:32:21;101477.97;;;33.86;32.70
45403;BME280;47427;51.976;5.326;2022-10-26T13:35:43;101501.38;;;34.34;31.91
45403;BME280;47427;51.976;5.326;2022-10-26T13:39:23;101490.25;;;34.80;30.73
45403;BME280;47427;51.976;5.326;2022-10-26T13:43:05;101504.53;;;34.83;31.45
45403;BME280;47427;51.976;5.326;2022-10-26T13:46:37;101501.09;;;34.24;30.98
45403;BME280;47427;51.976;5.326;2022-10-26T13:50:15;101503.09;;;34.92;32.29
45403;BME280;47427;51.976;5.326;2022-10-26T13:53:48;101494.31;;;33.56;32.24
45403;BME280;47427;51.976;5.326;2022-10-26T13:57:20;101502.06;;;32.69;33.39
45403;BME280;47427;51.976;5.326;2022-10-26T14:01:11;101492.00;;;32.37;33.98
45403;BME280;47427;51.976;5.326;2022-10-26T14:04:33;101498.53;;;32.51;33.28
45403;BME280;47427;51.976;5.326;2022-10-26T14:07:57;101492.44;;;31.25;35.57
45403;BME280;47427;51.976;5.326;2022-10-26T14:11:31;101506.59;;;29.76;36.98
45403;BME280;47427;51.976;5.326;2022-10-26T14:15:07;101509.72;;;28.99;39.75
45403;BME280;47427;51.976;5.326;2022-10-26T14:18:31;101516.78;;;28.58;39.91
45403;BME280;47427;51.976;5.326;2022-10-26T14:21:53;101529.22;;;28.62;41.18
45403;BME280;47427;51.976;5.326;2022-10-26T14:25:25;101534.38;;;27.94;41.06
45403;BME280;47427;51.976;5.326;2022-10-26T14:28:52;101539.28;;;27.28;42.47
45403;BME280;47427;51.976;5.326;2022-10-26T14:32:21;101544.91;;;26.61;43.89
45403;BME280;47427;51.976;5.326;2022-10-26T14:35:45;101522.06;;;26.43;44.72
45403;BME280;47427;51.976;5.326;2022-10-26T14:39:42;101554.72;;;25.98;45.20
45403;BME280;47427;51.976;5.326;2022-10-26T14:43:10;101552.34;;;25.84;45.76
45403;BME280;47427;51.976;5.326;2022-10-26T14:46:42;101554.34;;;26.12;45.21
45403;BME280;47427;51.976;5.326;2022-10-26T14:50:21;101536.66;;;26.36;45.43
45403;BME280;47427;51.976;5.326;2022-10-26T14:53:53;101555.06;;;26.19;44.71
45403;BME280;47427;51.976;5.326;2022-10-26T14:57:41;101591.44;;;25.63;46.92
45403;BME280;47427;51.976;5.326;2022-10-26T15:01:27;101593.81;;;24.96;47.91
45403;BME280;47427;51.976;5.326;2022-10-26T15:05:00;101586.25;;;23.77;51.61
45403;BME280;47427;51.976;5.326;2022-10-26T15:08:45;101601.38;;;23.22;53.15
45403;BME280;47427;51.976;5.326;2022-10-26T15:15:48;101594.56;;;22.95;54.77
45403;BME280;47427;51.976;5.326;2022-10-26T15:19:15;101573.09;;;22.28;56.25
45403;BME280;47427;51.976;5.326;2022-10-26T15:22:59;101608.75;;;22.24;57.18
45403;BME280;47427;51.976;5.326;2022-10-26T15:26:22;101606.13;;;22.15;57.98
45403;BME280;47427;51.976;5.326;2022-10-26T15:37:13;101615.63;;;21.37;60.73
45403;BME280;47427;51.976;5.326;2022-10-26T15:40:42;101613.16;;;21.07;62.26
45403;BME280;47427;51.976;5.326;2022-10-26T15:44:18;101633.66;;;20.92;63.25
45403;BME280;47427;51.976;5.326;2022-10-26T15:47:40;101626.59;;;20.68;64.57
45403;BME280;47427;51.976;5.326;2022-10-26T15:51:12;101634.66;;;20.51;64.96
45403;BME280;47427;51.976;5.326;2022-10-26T15:54:34;101639.97;;;20.38;65.65
45403;BME280;47427;51.976;5.326;2022-10-26T15:57:55;101652.47;;;20.11;66.68
45403;BME280;47427;51.976;5.326;2022-10-26T16:01:27;101648.00;;;19.98;67.16
45403;BME280;47427;51.976;5.326;2022-10-26T16:04:49;101648.91;;;20.10;67.26
45403;BME280;47427;51.976;5.326;2022-10-26T16:08:12;101638.25;;;19.97;67.90
45403;BME280;47427;51.976;5.326;2022-10-26T16:11:34;101649.81;;;20.11;67.79
45403;BME280;47427;51.976;5.326;2022-10-26T16:14:56;101671.13;;;20.11;67.70
45403;BME280;47427;51.976;5.326;2022-10-26T16:18:18;101672.00;;;20.27;67.01
45403;BME280;47427;51.976;5.326;2022-10-26T16:21:40;101670.22;;;20.17;67.67
45403;BME280;47427;51.976;5.326;2022-10-26T16:25:03;101679.09;;;19.91;67.88
45403;BME280;47427;51.976;5.326;2022-10-26T16:28:27;101671.84;;;19.36;69.57
45403;BME280;47427;51.976;5.326;2022-10-26T16:31:48;101679.72;;;19.07;71.19
45403;BME280;47427;51.976;5.326;2022-10-26T16:35:12;101682.31;;;18.96;71.43
45403;BME280;47427;51.976;5.326;2022-10-26T16:38:35;101695.53;;;18.79;72.47
45403;BME280;47427;51.976;5.326;2022-10-26T16:41:56;101697.16;;;18.59;73.14
45403;BME280;47427;51.976;5.326;2022-10-26T16:45:41;101693.56;;;18.55;73.53
45403;BME280;47427;51.976;5.326;2022-10-26T16:49:04;101696.16;;;18.45;73.87
45403;BME280;47427;51.976;5.326;2022-10-26T16:52:26;101688.97;;;18.31;74.58
45403;BME280;47427;51.976;5.326;2022-10-26T16:55:52;101691.53;;;18.19;75.16
45403;BME280;47427;51.976;5.326;2022-10-26T16:59:14;101700.25;;;18.04;75.78
45403;BME280;47427;51.976;5.326;2022-10-26T17:02:39;101701.94;;;17.96;76.19
45403;BME280;47427;51.976;5.326;2022-10-26T17:06:04;101716.06;;;17.92;76.54
45403;BME280;47427;51.976;5.326;2022-10-26T17:09:27;101720.28;;;17.73;77.36
45403;BME280;47427;51.976;5.326;2022-10-26T17:12:50;101720.22;;;17.68;77.42
45403;BME280;47427;51.976;5.326;2022-10-26T17:16:21;101736.91;;;17.58;78.27
45403;BME280;47427;51.976;5.326;2022-10-26T17:19:44;101741.28;;;17.54;78.06
45403;BME280;47427;51.976;5.326;2022-10-26T17:23:06;101739.47;;;17.50;78.63
45403;BME280;47427;51.976;5.326;2022-10-26T17:26:29;101736.69;;;17.40;78.70
45403;BME280;47427;51.976;5.326;2022-10-26T17:29:52;101741.00;;;17.30;79.30
45403;BME280;47427;51.976;5.326;2022-10-26T17:33:14;101750.56;;;17.19;79.80
45403;BME280;47427;51.976;5.326;2022-10-26T17:36:37;101755.78;;;17.13;80.20
45403;BME280;47427;51.976;5.326;2022-10-26T17:39:58;101766.34;;;17.09;80.63
45403;BME280;47427;51.976;5.326;2022-10-26T17:43:24;101752.81;;;16.89;80.58
45403;BME280;47427;51.976;5.326;2022-10-26T17:46:47;101787.31;;;16.93;81.59
45403;BME280;47427;51.976;5.326;2022-10-26T17:50:09;101784.53;;;16.85;81.91
45403;BME280;47427;51.976;5.326;2022-10-26T17:53:31;101803.06;;;16.83;82.09
45403;BME280;47427;51.976;5.326;2022-10-26T17:56:54;101795.94;;;16.79;82.00
45403;BME280;47427;51.976;5.326;2022-10-26T18:00:15;101790.47;;;16.70;82.37
45403;BME280;47427;51.976;5.326;2022-10-26T18:03:39;101817.00;;;16.73;82.60
45403;BME280;47427;51.976;5.326;2022-10-26T18:07:03;101816.94;;;16.68;82.92
45403;BME280;47427;51.976;5.326;2022-10-26T18:10:26;101797.28;;;16.56;83.06
45403;BME280;47427;51.976;5.326;2022-10-26T18:13:49;101808.72;;;16.53;83.60
45403;BME280;47427;51.976;5.326;2022-10-26T18:17:13;101817.63;;;16.57;84.11
45403;BME280;47427;51.976;5.326;2022-10-26T18:20:34;101819.22;;;16.47;84.24
45403;BME280;47427;51.976;5.326;2022-10-26T18:23:58;101821.59;;;16.32;85.50
45403;BME280;47427;51.976;5.326;2022-10-26T18:27:20;101826.81;;;16.27;85.49
45403;BME280;47427;51.976;5.326;2022-10-26T18:30:42;101832.94;;;16.24;86.27
45403;BME280;47427;51.976;5.326;2022-10-26T18:34:05;101843.47;;;16.21;86.76
45403;BME280;47427;51.976;5.326;2022-10-26T18:37:27;101855.88;;;16.24;86.43
45403;BME280;47427;51.976;5.326;2022-10-26T18:40:53;101858.56;;;16.25;86.13
45403;BME280;47427;51.976;5.326;2022-10-26T18:44:15;101862.84;;;16.19;86.33
45403;BME280;47427;51.976;5.326;2022-10-26T18:47:40;101851.38;;;16.18;86.21
45403;BME280;47427;51.976;5.326;2022-10-26T18:51:11;101871.13;;;16.36;86.09
45403;BME280;47427;51.976;5.326;2022-10-26T18:54:33;101878.03;;;16.29;86.77
45403;BME280;47427;51.976;5.326;2022-10-26T18:57:56;101871.97;;;16.33;86.46
45403;BME280;47427;51.976;5.326;2022-10-26T19:01:28;101883.94;;;16.14;87.55
45403;BME280;47427;51.976;5.326;2022-10-26T19:04:51;101876.78;;;16.10;87.44
45403;BME280;47427;51.976;5.326;2022-10-26T19:08:15;101878.34;;;15.99;87.59
45403;BME280;47427;51.976;5.326;2022-10-26T19:11:37;101881.75;;;15.93;87.74
45403;BME280;47427;51.976;5.326;2022-10-26T19:15:00;101886.13;;;15.91;87.87
45403;BME280;47427;51.976;5.326;2022-10-26T19:18:22;101871.72;;;15.78;88.52
45403;BME280;47427;51.976;5.326;2022-10-26T19:21:46;101897.31;;;15.79;88.87
45403;BME280;47427;51.976;5.326;2022-10-26T19:25:09;101891.66;;;15.63;89.72
45403;BME280;47427;51.976;5.326;2022-10-26T19:28:31;101903.22;;;15.68;89.94
45403;BME280;47427;51.976;5.326;2022-10-26T19:31:54;101913.69;;;15.63;89.96
45403;BME280;47427;51.976;5.326;2022-10-26T19:35:17;101905.38;;;15.46;91.18
45403;BME280;47427;51.976;5.326;2022-10-26T19:38:38;101925.75;;;15.50;90.74
45403;BME280;47427;51.976;5.326;2022-10-26T19:42:01;101917.66;;;15.44;91.48